WetterOnline ( https://www.wetteronline.de )

Wetter aktuell Warnau

Aktuelles Wetter: Dörnick (28m)

6-stündlich | Neueste Meldungen
Ortszeit Temperatur Wetter
Mi, 02.12. 13:00 3.7° C wolkig
Mi, 02.12. 7:00 3.6° C bedeckt
Mi, 02.12. 1:00 3.3° C bedeckt
Di, 01.12. 19:00 4.4° C bedeckt
Di, 01.12. 13:00 4.0° C bedeckt
Di, 01.12. 7:00 3.4° C Sprühregen
Di, 01.12. 1:00 2.5° C Sprühregen
Mo, 30.11. 19:00 2.2° C Sprühregen
Ortszeit Temperatur Wetter
Mi, 02.12. 14:00 3.0° C wolkenlos
Mi, 02.12. 13:50 3.0° C wolkenlos
Mi, 02.12. 13:40 3.3° C wolkenlos
Mi, 02.12. 13:30 3.4° C wolkenlos
Mi, 02.12. 13:20 3.4° C wolkenlos
Mi, 02.12. 13:10 3.3° C leicht bewölkt
Mi, 02.12. 13:00 3.7° C wolkig
Mi, 02.12. 12:30 4.0° C wolkig
Mi, 02.12. 12:00 3.5° C bewölkt
Mi, 02.12. 11:30 3.3° C bewölkt
Mi, 02.12. 11:00 3.3° C bewölkt
Ortszeit Relative Feuchte Sichtweite
Mi, 02.12. 13:00 78% 14 km
Mi, 02.12. 7:00 90% 6 km
Mi, 02.12. 1:00 95% 4.6 km
Di, 01.12. 19:00 92% 9 km
Di, 01.12. 13:00 95% 5.0 km
Di, 01.12. 7:00 96% 5.0 km
Di, 01.12. 1:00 95% 4.8 km
Mo, 30.11. 19:00 83% 15 km
Ortszeit Relative Feuchte Sichtweite
Mi, 02.12. 14:00 84% 11 km
Mi, 02.12. 13:50 84% -
Mi, 02.12. 13:40 80% -
Mi, 02.12. 13:30 81% 12 km
Mi, 02.12. 13:20 81% -
Mi, 02.12. 13:10 79% -
Mi, 02.12. 13:00 78% 14 km
Mi, 02.12. 12:30 81% 12 km
Mi, 02.12. 12:00 82% 11 km
Mi, 02.12. 11:30 89% 7 km
Mi, 02.12. 11:00 89% 7 km
Ortszeit Niederschlagsmenge Niederschlagsart
Mi, 02.12. 13:00 0.1 l/m2 in 6 Std. Sprühregen
Mi, 02.12. 7:00 0.1 l/m2 in 12 Std. Sprühregen
Mi, 02.12. 1:00 0.0 l/m2 in 6 Std. -
Di, 01.12. 19:00 0.1 l/m2 in 12 Std. -
Di, 01.12. 13:00 0.1 l/m2 in 6 Std. Regen
Di, 01.12. 7:00 3 l/m2 in 12 Std. Regen
Di, 01.12. 1:00 1 l/m2 in 6 Std. Regen
Mo, 30.11. 19:00 0.1 l/m2 in 12 Std. Regen
Ortszeit Niederschlagsmenge Niederschlagsart
Mi, 02.12. 14:00 0.0 l/m2 in 1 Std. -
Mi, 02.12. 13:50 keine Meldung -
Mi, 02.12. 13:40 keine Meldung -
Mi, 02.12. 13:30 0.0 l/m2 in 1 Std. -
Mi, 02.12. 13:20 keine Meldung -
Mi, 02.12. 13:10 keine Meldung -
Mi, 02.12. 13:00 0.0 l/m2 in 1 Std. Sprühregen
Mi, 02.12. 12:30 0.0 l/m2 in 1 Std. -
Mi, 02.12. 12:00 0.0 l/m2 in 1 Std. -
Mi, 02.12. 11:30 0.0 l/m2 in 1 Std. -
Mi, 02.12. 11:00 0.1 l/m2 in 1 Std. Sprühregen
Ortszeit Stärke Spitze Richtung
km/h Bft. km/h Grad Sektor
Mi, 02.12. 13:00 11 2 19 140° SO
Mi, 02.12. 7:00 4 1 11 110° O
Mi, 02.12. 1:00 0 0 18 - -
Di, 01.12. 19:00 9 2 17 60° NO
Di, 01.12. 13:00 7 2 14 50° NO
Di, 01.12. 7:00 11 2 22 150° SO
Di, 01.12. 1:00 15 3 31 180° S
Mo, 30.11. 19:00 17 3 37 190° S
Ortszeit Stärke Spitze Richtung
km/h Bft. km/h Grad Sektor
Mi, 02.12. 14:00 7 2 18 120° SO
Mi, 02.12. 13:50 7 2 - 120° SO
Mi, 02.12. 13:40 9 2 - 150° SO
Mi, 02.12. 13:30 9 2 17 130° SO
Mi, 02.12. 13:20 9 2 - 130° SO
Mi, 02.12. 13:10 9 2 - 140° SO
Mi, 02.12. 13:00 11 2 19 140° SO
Mi, 02.12. 12:30 7 2 18 140° SO
Mi, 02.12. 12:00 11 2 18 150° SO
Mi, 02.12. 11:30 7 2 13 120° SO
Mi, 02.12. 11:00 6 1 15 140° SO
Ortszeit Untergrenze Bedeckung Gattung
total tief tief mittel hoch
Mi, 02.12. 13:00 420 m 5/8 5/8 - - -
Mi, 02.12. 7:00 330 m 8/8 8/8 - - -
Mi, 02.12. 1:00 750 m 8/8 8/8 - - -
Di, 01.12. 19:00 360 m 8/8 8/8 - - -
Di, 01.12. 13:00 120 m 8/8 8/8 - - -
Di, 01.12. 7:00 120 m 8/8 8/8 - - -
Di, 01.12. 1:00 150 m 8/8 8/8 - - -
Mo, 30.11. 19:00 510 m 8/8 8/8 - - -
Ortszeit Bedeckungsgrad in Achtel und Wolkenuntergrenze
Mi, 02.12. 14:00 keine Wolken
Mi, 02.12. 13:50 keine Wolken
Mi, 02.12. 13:40 keine Wolken
Mi, 02.12. 13:30 keine Wolken
Mi, 02.12. 13:20 keine Wolken
Mi, 02.12. 13:10 2(450m)
Mi, 02.12. 13:00 5(420m)
Mi, 02.12. 12:30 6(390m)
Mi, 02.12. 12:00 7(330m)
Mi, 02.12. 11:30 5(240m) 6(330m) 7(510m)
Mi, 02.12. 11:00 6(270m) 7(450m)
Ortszeit Luftdruck NN (hPa) Tendenz (hPa in 3 Std.)
Mi, 02.12. 13:00 1019 - 2,7
Mi, 02.12. 7:00 1022 - 0,7
Mi, 02.12. 1:00 1024 + 0,8
Di, 01.12. 19:00 1021 + 2,4
Di, 01.12. 13:00 1016 + 2,1
Di, 01.12. 7:00 1012 + 1,1
Di, 01.12. 1:00 1011 - 1,7
Mo, 30.11. 19:00 1015 - 3,1
Ortszeit Luftdruck NN (hPa) Tendenz (hPa in 3 Std.)
Mi, 02.12. 14:00 1018 - 3,0
Mi, 02.12. 13:50 1018 keine Meldung
Mi, 02.12. 13:40 1018 keine Meldung
Mi, 02.12. 13:30 1018 - 2,9
Mi, 02.12. 13:20 1018 keine Meldung
Mi, 02.12. 13:10 1019 keine Meldung
Mi, 02.12. 13:00 1019 - 2,7
Mi, 02.12. 12:30 1019 - 2,3
Mi, 02.12. 12:00 1020 - 2,1
Mi, 02.12. 11:30 1020 - 1,6
Mi, 02.12. 11:00 1021 - 1,2
Ortszeit Schneehöhe (cm)
Mi, 02.12. 13:00 0
Mi, 02.12. 7:00 0
Mi, 02.12. 1:00 0
Di, 01.12. 19:00 0
Di, 01.12. 13:00 0
Di, 01.12. 7:00 0
Di, 01.12. 1:00 0
Mo, 30.11. 19:00 0
Ortszeit Schneehöhe (cm)
Mi, 02.12. 14:00 0
Mi, 02.12. 13:50 0
Mi, 02.12. 13:40 0
Mi, 02.12. 13:30 0
Mi, 02.12. 13:20 0
Mi, 02.12. 13:10 0
Mi, 02.12. 13:00 0
Mi, 02.12. 12:30 0
Mi, 02.12. 12:00 0
Mi, 02.12. 11:30 0
Mi, 02.12. 11:00 0
Link zu dieser Seite / Seite empfehlen

Das Wetter in ...